Time;durP1;ratioP1;P1;durP2;ratioP2;P2;SDS_P1;SDS_P2;PMS_P1;PMS_P2;Temp;Humidity;BMP_temperature;BMP_pressure;BME280_temperature;BME280_humidity;BME280_pressure;Samples;Min_cycle;Max_cycle;Signal;HPM_P1;HPM_P2
2023/05/24 00:00:52;;;;;;;27.47;23.17;;;;;;;;;;6249587;28;20085;-83
2023/05/24 00:03:52;;;;;;;30.60;22.77;;;;;;;;;;6263772;28;20080;-84
2023/05/24 00:06:53;;;;;;;32.20;23.77;;;;;;;;;;6267618;28;20037;-84
2023/05/24 00:09:55;;;;;;;34.60;24.77;;;;;;;;;;6267323;28;20025;-84
2023/05/24 00:12:55;;;;;;;27.88;21.58;;;;;;;;;;6265757;28;20032;-84
2023/05/24 00:15:55;;;;;;;35.60;24.30;;;;;;;;;;6245771;28;20136;-85
2023/05/24 00:18:57;;;;;;;35.20;23.43;;;;;;;;;;6264325;28;20116;-84
2023/05/24 00:21:57;;;;;;;29.33;22.58;;;;;;;;;;6267352;28;20074;-83
2023/05/24 00:24:57;;;;;;;36.73;24.17;;;;;;;;;;6248474;28;20021;-84
2023/05/24 00:27:57;;;;;;;35.30;24.77;;;;;;;;;;6267038;28;20021;-84
2023/05/24 00:30:58;;;;;;;31.97;22.87;;;;;;;;;;6266636;28;20486;-85
2023/05/24 00:33:58;;;;;;;28.97;22.70;;;;;;;;;;6248370;28;20487;-84
2023/05/24 00:36:59;;;;;;;30.03;21.63;;;;;;;;;;6262244;28;20061;-84
2023/05/24 00:39:59;;;;;;;31.35;22.83;;;;;;;;;;6267120;28;20441;-81
2023/05/24 00:42:59;;;;;;;33.07;22.93;;;;;;;;;;6266022;28;20079;-85
2023/05/24 00:46:13;;;;;;;28.00;22.20;;;;;;;;;;6249177;28;20159;-84
2023/05/24 00:49:13;;;;;;;29.77;21.23;;;;;;;;;;6267128;28;20025;-85
2023/05/24 00:52:14;;;;;;;30.33;21.27;;;;;;;;;;6266402;28;20438;-79
2023/05/24 00:55:14;;;;;;;29.73;21.07;;;;;;;;;;6253258;28;20017;-79
2023/05/24 00:58:15;;;;;;;28.07;21.47;;;;;;;;;;6267734;28;20024;-79
2023/05/24 01:01:15;;;;;;;31.43;21.97;;;;;;;;;;6268550;28;20075;-79
2023/05/24 01:04:16;;;;;;;28.77;22.10;;;;;;;;;;6271413;28;20040;-79
2023/05/24 01:07:31;;;;;;;32.47;23.27;;;;;;;;;;6268492;28;20065;-79
2023/05/24 01:10:46;;;;;;;31.17;21.45;;;;;;;;;;6266161;28;20486;-79
2023/05/24 01:14:06;;;;;;;25.65;20.65;;;;;;;;;;6270225;28;20039;-79
2023/05/24 01:17:22;;;;;;;23.65;20.10;;;;;;;;;;6253283;28;20056;-79
2023/05/24 01:20:23;;;;;;;27.58;19.98;;;;;;;;;;6252969;28;20025;-79
2023/05/24 01:23:30;;;;;;;29.70;21.10;;;;;;;;;;6269227;28;20071;-79
2023/05/24 01:26:37;;;;;;;25.48;19.00;;;;;;;;;;6252775;28;20115;-79
2023/05/24 01:29:37;;;;;;;25.30;20.02;;;;;;;;;;6270903;28;20790;-79
2023/05/24 01:32:38;;;;;;;28.90;21.30;;;;;;;;;;6252402;28;20029;-79
2023/05/24 01:35:41;;;;;;;28.13;20.83;;;;;;;;;;6265599;28;20544;-78
2023/05/24 01:38:42;;;;;;;27.77;20.55;;;;;;;;;;6248957;28;20013;-79
2023/05/24 01:41:50;;;;;;;28.07;21.10;;;;;;;;;;6271058;28;20106;-78
2023/05/24 01:45:10;;;;;;;28.95;20.60;;;;;;;;;;6272984;28;20056;-78
2023/05/24 01:48:20;;;;;;;29.85;21.80;;;;;;;;;;6273197;28;20483;-79
2023/05/24 01:51:22;;;;;;;36.60;21.25;;;;;;;;;;6254481;28;20035;-78
2023/05/24 01:54:22;;;;;;;;;;;;;;;;;;6247355;28;20033;-79
2023/05/24 01:57:23;;;;;;;30.40;21.10;;;;;;;;;;6266078;28;20422;-79
2023/05/24 02:00:24;;;;;;;28.83;21.48;;;;;;;;;;6264350;28;20049;-78
2023/05/24 02:03:24;;;;;;;30.17;22.37;;;;;;;;;;6252448;28;20060;-79
2023/05/24 02:06:24;;;;;;;30.13;20.77;;;;;;;;;;6251649;28;20142;-78
2023/05/24 02:09:24;;;;;;;26.63;20.57;;;;;;;;;;6248096;28;20032;-79
2023/05/24 02:12:25;;;;;;;28.90;22.40;;;;;;;;;;6262944;28;20446;-78
2023/05/24 02:15:29;;;;;;;29.20;21.27;;;;;;;;;;6269889;28;20028;-79
2023/05/24 02:18:33;;;;;;;26.92;20.63;;;;;;;;;;6252266;28;20013;-79
2023/05/24 02:21:33;;;;;;;30.67;21.70;;;;;;;;;;6249842;28;20017;-78
2023/05/24 02:24:35;;;;;;;27.73;22.70;;;;;;;;;;6270042;28;20043;-79
2023/05/24 02:27:35;;;;;;;31.73;21.77;;;;;;;;;;6252520;28;20120;-79
2023/05/24 02:30:37;;;;;;;29.00;22.47;;;;;;;;;;6269189;28;20023;-79
2023/05/24 02:33:37;;;;;;;29.25;22.60;;;;;;;;;;6270436;28;20039;-79
2023/05/24 02:36:37;;;;;;;32.30;22.93;;;;;;;;;;6258243;28;20025;-78
2023/05/24 02:39:37;;;;;;;30.53;22.63;;;;;;;;;;6265965;28;20087;-79
2023/05/24 02:42:37;;;;;;;34.40;24.57;;;;;;;;;;6263128;28;20463;-78
2023/05/24 02:45:38;;;;;;;37.57;25.70;;;;;;;;;;6269636;28;20024;-79
2023/05/24 02:48:38;;;;;;;35.83;26.40;;;;;;;;;;6269908;28;20100;-79
2023/05/24 02:51:39;;;;;;;34.80;25.23;;;;;;;;;;6270167;28;20090;-79
2023/05/24 02:54:40;;;;;;;37.67;27.98;;;;;;;;;;6269687;28;20020;-78
2023/05/24 02:57:40;;;;;;;35.57;25.23;;;;;;;;;;6251876;28;20074;-78
2023/05/24 03:00:40;;;;;;;36.50;26.67;;;;;;;;;;6246900;28;20539;-79
2023/05/24 03:03:41;;;;;;;38.40;27.23;;;;;;;;;;6247462;28;20037;-79
2023/05/24 03:06:41;;;;;;;38.63;26.23;;;;;;;;;;6263606;28;20391;-79
2023/05/24 03:09:41;;;;;;;36.93;25.83;;;;;;;;;;6266887;28;20060;-79
2023/05/24 03:12:42;;;;;;;38.60;30.17;;;;;;;;;;6252071;28;20025;-79
2023/05/24 03:15:42;;;;;;;39.37;27.80;;;;;;;;;;6271065;28;20477;-79
2023/05/24 03:18:43;;;;;;;40.93;28.60;;;;;;;;;;6272352;28;20053;-78
2023/05/24 03:21:43;;;;;;;43.27;28.70;;;;;;;;;;6241392;28;20070;-79
2023/05/24 03:24:45;;;;;;;38.53;27.23;;;;;;;;;;6266384;28;20384;-79
2023/05/24 03:27:45;;;;;;;41.78;28.33;;;;;;;;;;6265934;28;20075;-79
2023/05/24 03:30:45;;;;;;;40.67;26.13;;;;;;;;;;6267609;28;20470;-79
2023/05/24 03:33:45;;;;;;;34.77;24.47;;;;;;;;;;6267894;28;20025;-79
2023/05/24 03:36:45;;;;;;;44.88;26.90;;;;;;;;;;6267855;28;20021;-79
2023/05/24 03:39:46;;;;;;;32.93;24.43;;;;;;;;;;6267342;28;20070;-79
2023/05/24 03:42:46;;;;;;;35.70;24.77;;;;;;;;;;6267338;28;20024;-78
2023/05/24 03:45:46;;;;;;;31.57;24.07;;;;;;;;;;6267344;28;20029;-79
2023/05/24 03:48:47;;;;;;;32.57;22.77;;;;;;;;;;6249740;28;20024;-79
2023/05/24 03:51:47;;;;;;;31.30;23.37;;;;;;;;;;6268303;28;20020;-79
2023/05/24 03:54:48;;;;;;;29.37;22.43;;;;;;;;;;6266927;28;20111;-80
2023/05/24 03:57:48;;;;;;;32.07;21.63;;;;;;;;;;6267865;28;20083;-79
2023/05/24 04:00:50;;;;;;;28.13;21.20;;;;;;;;;;6261462;28;20103;-79
2023/05/24 04:03:51;;;;;;;33.20;23.10;;;;;;;;;;6257857;28;20068;-79
2023/05/24 04:06:52;;;;;;;31.27;22.15;;;;;;;;;;6268135;28;20558;-78
2023/05/24 04:09:54;;;;;;;31.10;22.98;;;;;;;;;;6268508;28;20090;-80
2023/05/24 04:12:56;;;;;;;36.78;24.73;;;;;;;;;;6249974;28;20434;-79
2023/05/24 04:15:56;;;;;;;30.77;22.88;;;;;;;;;;6263462;28;20480;-79
2023/05/24 04:18:56;;;;;;;32.80;23.20;;;;;;;;;;6267255;28;20032;-78
2023/05/24 04:21:57;;;;;;;34.13;24.10;;;;;;;;;;6267746;28;20048;-85
2023/05/24 04:24:57;;;;;;;32.67;21.60;;;;;;;;;;6251183;28;20049;-85
2023/05/24 04:27:59;;;;;;;31.97;22.57;;;;;;;;;;6251951;28;20560;-84
2023/05/24 04:30:59;;;;;;;27.80;20.63;;;;;;;;;;6272949;28;20051;-85
2023/05/24 04:33:59;;;;;;;28.20;20.30;;;;;;;;;;6254153;28;20063;-84
2023/05/24 04:37:00;;;;;;;24.90;18.40;;;;;;;;;;6242180;28;20162;-85
2023/05/24 04:40:03;;;;;;;27.27;18.35;;;;;;;;;;6272625;28;20540;-85
2023/05/24 04:43:06;;;;;;;22.88;17.90;;;;;;;;;;6270355;28;20028;-85
2023/05/24 04:46:06;;;;;;;26.65;19.92;;;;;;;;;;6251188;28;20056;-85
2023/05/24 04:49:07;;;;;;;22.53;17.60;;;;;;;;;;6270370;28;20050;-85
2023/05/24 04:52:08;;;;;;;23.30;17.67;;;;;;;;;;6254149;28;20602;-85
2023/05/24 04:55:09;;;;;;;22.23;17.33;;;;;;;;;;6269332;28;20025;-85
2023/05/24 04:58:09;;;;;;;22.37;16.57;;;;;;;;;;6264576;28;20388;-85
2023/05/24 05:01:09;;;;;;;22.40;16.13;;;;;;;;;;6252514;28;20074;-86
2023/05/24 05:04:10;;;;;;;23.23;15.97;;;;;;;;;;6255355;28;20075;-85
2023/05/24 05:07:10;;;;;;;21.93;15.80;;;;;;;;;;6255245;28;20669;-85
2023/05/24 05:10:10;;;;;;;22.63;15.43;;;;;;;;;;6269717;28;20106;-85
2023/05/24 05:13:10;;;;;;;24.43;15.80;;;;;;;;;;6272364;28;20028;-85
2023/05/24 05:16:11;;;;;;;20.30;16.00;;;;;;;;;;6271539;28;20521;-85
2023/05/24 05:19:13;;;;;;;24.48;16.50;;;;;;;;;;6265911;28;20435;-84
2023/05/24 05:22:13;;;;;;;24.35;17.98;;;;;;;;;;6261969;28;20034;-79
2023/05/24 05:25:14;;;;;;;22.27;14.33;;;;;;;;;;6269066;28;20526;-79
2023/05/24 05:28:14;;;;;;;22.47;17.97;;;;;;;;;;6267011;28;20028;-79
2023/05/24 05:31:14;;;;;;;26.87;18.00;;;;;;;;;;6246495;28;20069;-84
2023/05/24 05:34:18;;;;;;;17.00;12.13;;;;;;;;;;6244001;28;20029;-85
2023/05/24 05:37:18;;;;;;;18.88;14.75;;;;;;;;;;6247790;28;20381;-85
2023/05/24 05:40:18;;;;;;;20.20;14.37;;;;;;;;;;6262529;28;20029;-86
2023/05/24 05:43:18;;;;;;;16.70;11.43;;;;;;;;;;6269519;28;20017;-85
2023/05/24 05:46:20;;;;;;;17.80;12.27;;;;;;;;;;6270839;28;20561;-85
2023/05/24 05:49:21;;;;;;;17.98;10.20;;;;;;;;;;6244232;28;20033;-85
2023/05/24 05:52:21;;;;;;;14.97;9.37;;;;;;;;;;6253478;28;20029;-85
2023/05/24 05:55:21;;;;;;;14.53;8.17;;;;;;;;;;6269907;28;20059;-86
2023/05/24 05:58:21;;;;;;;10.63;7.17;;;;;;;;;;6270295;28;20036;-86
2023/05/24 06:01:22;;;;;;;11.93;7.97;;;;;;;;;;6266308;28;20240;-85
2023/05/24 06:04:22;;;;;;;12.13;8.80;;;;;;;;;;6271609;28;20049;-85
2023/05/24 06:07:22;;;;;;;14.00;8.80;;;;;;;;;;6270717;28;20033;-86
2023/05/24 06:10:22;;;;;;;13.17;8.93;;;;;;;;;;6268004;28;20047;-84
2023/05/24 06:13:22;;;;;;;14.40;11.10;;;;;;;;;;6271821;28;20067;-87
2023/05/24 06:16:22;;;;;;;14.50;10.50;;;;;;;;;;6257119;28;20487;-87
2023/05/24 06:19:23;;;;;;;20.47;11.97;;;;;;;;;;6254251;28;20025;-87
2023/05/24 06:22:24;;;;;;;17.47;12.17;;;;;;;;;;6271050;28;20566;-86
2023/05/24 06:25:26;;;;;;;19.27;12.20;;;;;;;;;;6270790;28;20024;-86
2023/05/24 06:28:26;;;;;;;20.27;12.07;;;;;;;;;;6269641;28;20021;-87
2023/05/24 06:31:26;;;;;;;20.03;11.63;;;;;;;;;;6273890;28;20033;-86
2023/05/24 06:34:28;;;;;;;18.88;10.88;;;;;;;;;;6252630;28;20068;-84
2023/05/24 06:37:30;;;;;;;;;;;;;;;;;;6254162;28;20067;-86
2023/05/24 06:40:30;;;;;;;19.65;10.75;;;;;;;;;;6271870;28;19995;-79
2023/05/24 06:43:32;;;;;;;18.07;10.00;;;;;;;;;;6268135;28;20035;-78
2023/05/24 06:46:32;;;;;;;17.10;11.05;;;;;;;;;;6250730;28;20029;-79
2023/05/24 06:49:33;;;;;;;19.73;10.73;;;;;;;;;;6250649;28;20039;-79
2023/05/24 06:52:33;;;;;;;18.17;10.23;;;;;;;;;;6268218;28;20078;-79
2023/05/24 06:55:33;;;;;;;15.03;9.87;;;;;;;;;;6249499;28;20588;-79
2023/05/24 06:58:34;;;;;;;17.70;10.57;;;;;;;;;;6268261;28;20016;-79
2023/05/24 07:01:35;;;;;;;17.07;9.77;;;;;;;;;;6250756;28;20089;-78
2023/05/24 07:04:35;;;;;;;17.40;10.43;;;;;;;;;;6267682;28;20037;-78
2023/05/24 07:07:35;;;;;;;20.93;10.23;;;;;;;;;;6264752;28;20472;-78
2023/05/24 07:10:35;;;;;;;16.92;9.73;;;;;;;;;;6266702;28;20017;-78
2023/05/24 07:13:36;;;;;;;18.70;9.95;;;;;;;;;;6252089;28;20048;-78
2023/05/24 07:16:36;;;;;;;19.53;10.73;;;;;;;;;;6271099;28;20056;-78
2023/05/24 07:19:36;;;;;;;18.90;9.23;;;;;;;;;;6252198;28;20020;-78
2023/05/24 07:22:36;;;;;;;15.93;8.93;;;;;;;;;;6268985;28;20543;-78
2023/05/24 07:25:37;;;;;;;13.93;8.63;;;;;;;;;;6264414;28;20434;-78
2023/05/24 07:28:39;;;;;;;14.47;8.43;;;;;;;;;;6249744;28;20029;-78
2023/05/24 07:31:39;;;;;;;14.07;7.97;;;;;;;;;;6250526;28;20017;-77
2023/05/24 07:34:40;;;;;;;11.80;7.33;;;;;;;;;;6267632;28;20590;-79
2023/05/24 07:37:41;;;;;;;13.80;9.13;;;;;;;;;;6267040;28;20041;-78
2023/05/24 07:40:42;;;;;;;17.20;8.03;;;;;;;;;;6263964;28;20017;-78
2023/05/24 07:43:42;;;;;;;;;;;;;;;;;;6268494;28;20021;-79
2023/05/24 07:46:43;;;;;;;14.80;8.65;;;;;;;;;;6265743;28;19913;-77
2023/05/24 07:49:43;;;;;;;14.88;8.48;;;;;;;;;;6265578;28;20021;-79
2023/05/24 07:52:44;;;;;;;16.73;9.27;;;;;;;;;;6266764;28;20104;-86
2023/05/24 07:55:45;;;;;;;12.60;7.32;;;;;;;;;;6264206;28;20022;-84
2023/05/24 07:58:46;;;;;;;12.93;7.57;;;;;;;;;;6262475;28;20589;-82
2023/05/24 08:01:46;;;;;;;11.57;7.77;;;;;;;;;;6245367;28;20112;-83
2023/05/24 08:04:47;;;;;;;11.77;7.40;;;;;;;;;;6263821;28;20049;-82
2023/05/24 08:07:47;;;;;;;12.30;7.07;;;;;;;;;;6265435;28;20035;-83
2023/05/24 08:10:47;;;;;;;12.30;7.17;;;;;;;;;;6267583;28;20035;-85
2023/05/24 08:13:47;;;;;;;14.77;7.30;;;;;;;;;;6265935;28;20025;-83
2023/05/24 08:16:47;;;;;;;12.07;8.00;;;;;;;;;;6248531;28;20679;-83
2023/05/24 08:19:48;;;;;;;15.35;9.75;;;;;;;;;;6248357;28;20074;-83
2023/05/24 08:22:49;;;;;;;14.93;8.70;;;;;;;;;;6265527;28;20024;-84
2023/05/24 08:25:49;;;;;;;;;;;;;;;;;;6261577;28;20027;-83
2023/05/24 08:28:50;;;;;;;13.07;8.25;;;;;;;;;;6265177;28;20279;-83
2023/05/24 08:31:50;;;;;;;13.37;9.10;;;;;;;;;;6267138;28;20122;-83
2023/05/24 08:34:51;;;;;;;12.53;7.27;;;;;;;;;;6267673;28;20021;-83
2023/05/24 08:37:51;;;;;;;13.50;8.30;;;;;;;;;;6261300;28;20025;-79
2023/05/24 08:40:51;;;;;;;15.23;7.50;;;;;;;;;;6257594;28;20022;-83
2023/05/24 08:43:52;;;;;;;13.13;7.57;;;;;;;;;;6249321;28;20037;-84
2023/05/24 08:46:53;;;;;;;15.90;7.73;;;;;;;;;;6267898;28;20032;-84
2023/05/24 08:49:56;;;;;;;14.80;7.32;;;;;;;;;;6249698;28;20032;-84
2023/05/24 08:52:56;;;;;;;14.82;9.05;;;;;;;;;;6242487;28;20032;-78
2023/05/24 08:55:57;;;;;;;15.97;9.47;;;;;;;;;;6248150;28;20055;-78
2023/05/24 08:58:57;;;;;;;16.00;9.03;;;;;;;;;;6259402;28;20056;-78
2023/05/24 09:01:59;;;;;;;14.05;7.47;;;;;;;;;;6242055;28;20087;-84
2023/05/24 09:04:59;;;;;;;16.97;9.40;;;;;;;;;;6245841;28;20045;-84
2023/05/24 09:08:00;;;;;;;18.37;10.57;;;;;;;;;;6262298;28;20045;-83
2023/05/24 09:11:02;;;;;;;19.70;11.33;;;;;;;;;;6266946;28;20029;-84
2023/05/24 09:14:02;;;;;;;;;;;;;;;;;;6248999;28;20025;-85
2023/05/24 09:17:02;;;;;;;14.75;9.75;;;;;;;;;;6265105;28;19936;-84
2023/05/24 09:20:08;;;;;;;16.97;10.17;;;;;;;;;;6270468;28;20465;-85
2023/05/24 09:23:10;;;;;;;10.63;6.82;;;;;;;;;;6252600;28;20507;-85
2023/05/24 09:26:11;;;;;;;13.80;7.10;;;;;;;;;;6252186;28;20037;-84
2023/05/24 09:29:11;;;;;;;15.90;7.40;;;;;;;;;;6248699;28;20502;-84
2023/05/24 09:32:13;;;;;;;11.27;6.50;;;;;;;;;;6268274;28;20164;-84
2023/05/24 09:35:13;;;;;;;11.75;6.85;;;;;;;;;;6268730;28;20041;-85
2023/05/24 09:38:17;;;;;;;15.67;8.60;;;;;;;;;;6248544;28;20064;-86
2023/05/24 09:41:19;;;;;;;12.68;6.53;;;;;;;;;;6269145;28;20025;-84
2023/05/24 09:44:19;;;;;;;;;;;;;;;;;;6249646;28;20160;-84
2023/05/24 09:47:19;;;;;;;11.80;7.93;;;;;;;;;;6262251;28;20383;-84
2023/05/24 09:50:19;;;;;;;13.33;8.07;;;;;;;;;;6247635;28;20033;-85
2023/05/24 09:53:21;;;;;;;12.27;6.87;;;;;;;;;;6268620;28;20087;-85
2023/05/24 09:56:22;;;;;;;13.27;8.55;;;;;;;;;;6267479;28;20399;-84
2023/05/24 09:59:23;;;;;;;18.02;8.30;;;;;;;;;;6233878;28;20029;-85
2023/05/24 10:02:24;;;;;;;16.27;8.03;;;;;;;;;;6268576;28;20048;-79
2023/05/24 10:05:25;;;;;;;11.95;7.68;;;;;;;;;;6251615;28;20147;-78
2023/05/24 10:08:26;;;;;;;13.90;9.50;;;;;;;;;;6268968;28;20021;-78
2023/05/24 10:11:27;;;;;;;15.13;9.98;;;;;;;;;;6271461;28;20295;-84
2023/05/24 10:14:29;;;;;;;13.20;8.33;;;;;;;;;;6273231;28;20021;-85
2023/05/24 10:17:29;;;;;;;14.32;8.18;;;;;;;;;;6251937;28;20035;-86
2023/05/24 10:20:30;;;;;;;13.20;8.10;;;;;;;;;;6273373;28;20049;-86
2023/05/24 10:23:31;;;;;;;13.70;8.13;;;;;;;;;;6280903;28;20043;-85
2023/05/24 10:26:32;;;;;;;14.52;9.23;;;;;;;;;;6255029;28;20017;-86
2023/05/24 10:29:44;;;;;;;13.32;8.15;;;;;;;;;;6260452;28;20032;-86
2023/05/24 10:32:45;;;;;;;15.27;8.68;;;;;;;;;;6259477;28;20029;-85
2023/05/24 10:35:46;;;;;;;13.10;7.53;;;;;;;;;;6272694;28;20021;-84
2023/05/24 10:38:46;;;;;;;10.30;6.43;;;;;;;;;;6267250;28;20062;-85
2023/05/24 10:41:46;;;;;;;11.63;6.97;;;;;;;;;;6265914;28;20526;-84
2023/05/24 10:44:47;;;;;;;12.97;8.57;;;;;;;;;;6266459;28;20013;-85
2023/05/24 10:47:47;;;;;;;12.43;7.83;;;;;;;;;;6269287;28;20499;-85
2023/05/24 10:50:47;;;;;;;13.80;8.07;;;;;;;;;;6254002;28;20048;-86
2023/05/24 10:53:48;;;;;;;12.73;6.67;;;;;;;;;;6255913;28;20776;-85
2023/05/24 10:56:49;;;;;;;13.07;8.20;;;;;;;;;;6255718;28;20029;-86
2023/05/24 10:59:51;;;;;;;12.43;8.17;;;;;;;;;;6266596;28;20032;-85
2023/05/24 11:02:58;;;;;;;13.18;8.88;;;;;;;;;;6274474;28;20302;-85
2023/05/24 11:05:58;;;;;;;10.05;7.32;;;;;;;;;;6261488;28;20035;-86
2023/05/24 11:08:59;;;;;;;17.13;11.37;;;;;;;;;;6272375;28;20036;-85
2023/05/24 11:12:02;;;;;;;19.07;11.83;;;;;;;;;;6265096;28;20025;-78
2023/05/24 11:15:05;;;;;;;16.10;11.18;;;;;;;;;;6265680;28;20090;-78
2023/05/24 11:18:11;;;;;;;14.52;9.57;;;;;;;;;;6269251;28;20028;-78
2023/05/24 11:21:13;;;;;;;19.17;11.88;;;;;;;;;;6262813;28;20383;-79
2023/05/24 11:24:13;;;;;;;19.63;11.57;;;;;;;;;;6266902;28;20060;-80
2023/05/24 11:27:13;;;;;;;21.67;13.20;;;;;;;;;;6244138;28;20464;-77
2023/05/24 11:30:14;;;;;;;13.80;9.57;;;;;;;;;;6265575;28;20024;-77
2023/05/24 11:33:18;;;;;;;13.27;8.03;;;;;;;;;;6256907;28;20090;-77
2023/05/24 11:36:19;;;;;;;12.52;7.68;;;;;;;;;;6243969;28;20061;-78
2023/05/24 11:39:19;;;;;;;12.67;8.40;;;;;;;;;;6267677;28;20024;-78
2023/05/24 11:42:20;;;;;;;14.07;8.07;;;;;;;;;;6242081;28;20032;-78
2023/05/24 11:45:21;;;;;;;13.13;8.57;;;;;;;;;;6262525;28;20017;-78
2023/05/24 11:48:21;;;;;;;13.73;8.70;;;;;;;;;;6263114;28;20056;-79
2023/05/24 11:51:28;;;;;;;12.90;9.50;;;;;;;;;;6266796;28;20021;-77
2023/05/24 11:54:32;;;;;;;12.55;7.95;;;;;;;;;;6247352;28;20020;-79
2023/05/24 11:57:39;;;;;;;13.25;8.77;;;;;;;;;;6265357;28;20051;-78
2023/05/24 12:00:41;;;;;;;11.35;8.00;;;;;;;;;;6259803;28;20096;-79
2023/05/24 12:03:41;;;;;;;10.23;6.90;;;;;;;;;;6259315;28;20453;-79
2023/05/24 12:06:42;;;;;;;9.70;5.87;;;;;;;;;;6267336;28;20029;-77
2023/05/24 12:09:42;;;;;;;13.10;6.95;;;;;;;;;;6259249;28;20103;-79
2023/05/24 12:12:43;;;;;;;17.47;7.17;;;;;;;;;;6246442;28;20499;-79
2023/05/24 12:15:44;;;;;;;10.85;6.68;;;;;;;;;;6246737;28;20048;-79
2023/05/24 12:18:44;;;;;;;10.20;6.90;;;;;;;;;;6266244;28;20838;-78
2023/05/24 12:21:45;;;;;;;8.40;5.80;;;;;;;;;;6267797;28;20028;-84
2023/05/24 12:24:48;;;;;;;9.48;6.20;;;;;;;;;;6271545;28;20052;-86
2023/05/24 12:27:55;;;;;;;11.07;7.13;;;;;;;;;;6270530;28;20033;-84
2023/05/24 12:30:56;;;;;;;11.20;6.43;;;;;;;;;;6244639;28;20036;-78
2023/05/24 12:33:56;;;;;;;9.60;6.50;;;;;;;;;;6241554;28;20055;-78
2023/05/24 12:36:57;;;;;;;11.80;6.53;;;;;;;;;;6246362;28;20036;-78
2023/05/24 12:39:58;;;;;;;13.50;7.60;;;;;;;;;;6262341;28;20351;-77
2023/05/24 12:42:59;;;;;;;9.70;6.35;;;;;;;;;;6263761;28;20471;-79
2023/05/24 12:45:59;;;;;;;10.73;5.70;;;;;;;;;;6252462;28;20032;-78
2023/05/24 12:49:03;;;;;;;10.67;5.87;;;;;;;;;;6248431;28;20017;-78
2023/05/24 12:52:03;;;;;;;10.10;6.15;;;;;;;;;;6264768;28;20373;-78
2023/05/24 12:55:05;;;;;;;9.23;5.40;;;;;;;;;;6270718;28;20028;-79
2023/05/24 12:58:08;;;;;;;11.98;6.65;;;;;;;;;;6266642;28;20020;-78
2023/05/24 13:01:08;;;;;;;11.75;6.82;;;;;;;;;;6271348;28;20096;-79
2023/05/24 13:04:09;;;;;;;12.63;6.83;;;;;;;;;;6269452;28;20056;-79
2023/05/24 13:07:09;;;;;;;12.48;7.60;;;;;;;;;;6250093;28;20446;-78
2023/05/24 13:10:10;;;;;;;11.90;7.17;;;;;;;;;;6270605;28;20035;-79
2023/05/24 13:13:11;;;;;;;13.77;8.70;;;;;;;;;;6252298;28;20025;-77
2023/05/24 13:16:11;;;;;;;11.97;7.57;;;;;;;;;;6267565;28;20032;-78
2023/05/24 13:19:12;;;;;;;10.47;6.30;;;;;;;;;;6267030;28;20017;-77
2023/05/24 13:22:12;;;;;;;9.53;6.40;;;;;;;;;;6271083;28;20027;-78
2023/05/24 13:25:12;;;;;;;13.07;7.23;;;;;;;;;;6249218;28;20025;-78
2023/05/24 13:28:13;;;;;;;14.20;9.50;;;;;;;;;;6267187;28;20064;-77
2023/05/24 13:31:14;;;;;;;16.60;9.82;;;;;;;;;;6270193;28;20504;-77
2023/05/24 13:34:14;;;;;;;13.17;7.77;;;;;;;;;;6258608;28;20029;-78
2023/05/24 13:37:18;;;;;;;14.73;8.67;;;;;;;;;;6268482;28;20052;-78
2023/05/24 13:40:19;;;;;;;12.73;7.97;;;;;;;;;;6272282;28;20125;-78
2023/05/24 13:43:19;;;;;;;14.97;8.47;;;;;;;;;;6271130;28;20025;-78
2023/05/24 13:46:20;;;;;;;17.10;8.87;;;;;;;;;;6263530;28;20483;-77
2023/05/24 13:49:20;;;;;;;19.90;9.00;;;;;;;;;;6252182;28;20032;-77
2023/05/24 13:52:20;;;;;;;17.47;8.53;;;;;;;;;;6262027;28;20387;-79
2023/05/24 13:55:20;;;;;;;20.37;9.10;;;;;;;;;;6269192;28;20028;-76
2023/05/24 13:58:21;;;;;;;16.77;8.47;;;;;;;;;;6249587;28;20028;-77
2023/05/24 14:01:21;;;;;;;17.57;11.13;;;;;;;;;;6267858;28;20112;-77
2023/05/24 14:04:21;;;;;;;19.20;9.53;;;;;;;;;;6245562;28;20533;-78
2023/05/24 14:07:22;;;;;;;15.77;9.63;;;;;;;;;;6269949;28;20040;-78
2023/05/24 14:10:22;;;;;;;15.00;9.10;;;;;;;;;;6251086;28;20021;-78
2023/05/24 14:13:23;;;;;;;14.30;7.32;;;;;;;;;;6270241;28;20071;-78
2023/05/24 14:16:23;;;;;;;21.83;12.60;;;;;;;;;;6269692;28;20103;-79
2023/05/24 14:19:24;;;;;;;15.20;9.47;;;;;;;;;;6250494;28;20060;-78
2023/05/24 14:22:24;;;;;;;15.27;8.07;;;;;;;;;;6263821;28;20054;-78
2023/05/24 14:25:25;;;;;;;13.27;8.50;;;;;;;;;;6263140;28;20049;-78
2023/05/24 14:28:25;;;;;;;12.02;7.65;;;;;;;;;;6249783;28;20108;-78
2023/05/24 14:31:25;;;;;;;15.87;9.97;;;;;;;;;;6262863;28;20025;-78
2023/05/24 14:34:25;;;;;;;22.27;13.10;;;;;;;;;;6242405;28;20032;-76
2023/05/24 14:37:26;;;;;;;14.57;8.60;;;;;;;;;;6267418;28;20029;-77
2023/05/24 14:40:26;;;;;;;17.23;9.33;;;;;;;;;;6268395;28;20009;-77
2023/05/24 14:43:26;;;;;;;11.60;6.87;;;;;;;;;;6268795;28;20021;-77
2023/05/24 14:46:27;;;;;;;12.37;8.17;;;;;;;;;;6250667;28;20075;-76
2023/05/24 14:49:27;;;;;;;13.37;7.53;;;;;;;;;;6250017;28;20585;-77
2023/05/24 14:52:27;;;;;;;12.93;7.20;;;;;;;;;;6230733;28;20039;-77
2023/05/24 14:55:27;;;;;;;12.63;7.67;;;;;;;;;;6259608;28;20032;-77
2023/05/24 14:58:28;;;;;;;10.60;6.43;;;;;;;;;;6251486;28;20116;-77
2023/05/24 15:01:28;;;;;;;11.07;6.87;;;;;;;;;;6248074;28;20021;-77
2023/05/24 15:04:28;;;;;;;11.13;7.30;;;;;;;;;;6258369;28;20053;-77
2023/05/24 15:07:28;;;;;;;13.67;9.40;;;;;;;;;;6264882;28;20025;-77
2023/05/24 15:10:29;;;;;;;13.63;9.37;;;;;;;;;;6247742;28;20029;-77
2023/05/24 15:13:29;;;;;;;28.37;15.77;;;;;;;;;;6261226;28;20403;-80
2023/05/24 15:16:30;;;;;;;17.30;9.88;;;;;;;;;;6266274;28;20082;-77
2023/05/24 15:19:30;;;;;;;13.97;10.63;;;;;;;;;;6268681;28;20013;-77
2023/05/24 15:22:32;;;;;;;12.10;8.53;;;;;;;;;;6270675;28;20040;-77
2023/05/24 15:25:33;;;;;;;15.40;9.30;;;;;;;;;;6253287;28;20027;-77
2023/05/24 15:28:33;;;;;;;13.20;9.38;;;;;;;;;;6250951;28;20026;-77
2023/05/24 15:31:34;;;;;;;19.87;11.97;;;;;;;;;;6271977;28;20473;-77
2023/05/24 15:34:34;;;;;;;24.53;15.17;;;;;;;;;;6262734;28;20026;-78
2023/05/24 15:37:34;;;;;;;18.40;12.70;;;;;;;;;;6254173;28;20029;-77
2023/05/24 15:40:37;;;;;;;15.80;10.73;;;;;;;;;;6240186;28;20047;-78
2023/05/24 15:43:37;;;;;;;18.58;10.85;;;;;;;;;;6268912;28;20356;-78
2023/05/24 15:46:38;;;;;;;15.87;11.20;;;;;;;;;;6267408;28;20017;-78
2023/05/24 15:49:39;;;;;;;21.98;12.48;;;;;;;;;;6248782;28;20471;-79
2023/05/24 15:52:39;;;;;;;15.53;11.03;;;;;;;;;;6265117;28;20104;-86
2023/05/24 15:55:40;;;;;;;23.57;13.93;;;;;;;;;;6283793;28;20025;-85
2023/05/24 15:58:42;;;;;;;20.87;13.63;;;;;;;;;;6261774;28;20036;-87
2023/05/24 16:01:44;;;;;;;29.20;16.92;;;;;;;;;;6255368;28;20013;-78
2023/05/24 16:04:45;;;;;;;25.42;14.13;;;;;;;;;;6259489;28;20389;-78
2023/05/24 16:07:45;;;;;;;16.17;11.17;;;;;;;;;;6249663;28;20017;-78
2023/05/24 16:10:45;;;;;;;21.00;13.23;;;;;;;;;;6266759;28;20547;-78
2023/05/24 16:13:46;;;;;;;17.33;10.70;;;;;;;;;;6267678;28;20017;-78
2023/05/24 16:16:54;;;;;;;21.42;13.38;;;;;;;;;;6249176;28;20021;-79
2023/05/24 16:19:58;;;;;;;13.25;8.57;;;;;;;;;;6267931;28;20116;-78
2023/05/24 16:22:58;;;;;;;15.15;8.07;;;;;;;;;;6255227;28;20024;-78
2023/05/24 16:25:58;;;;;;;13.33;8.17;;;;;;;;;;6268607;28;20017;-79
2023/05/24 16:29:00;;;;;;;12.43;8.00;;;;;;;;;;6266833;28;20037;-79
2023/05/24 16:32:01;;;;;;;15.70;8.75;;;;;;;;;;6262758;28;20531;-80
2023/05/24 16:35:01;;;;;;;9.53;6.90;;;;;;;;;;6249725;28;20035;-80
2023/05/24 16:38:01;;;;;;;13.17;8.90;;;;;;;;;;6263761;28;20025;-78
2023/05/24 16:41:02;;;;;;;12.17;7.60;;;;;;;;;;6264810;28;20041;-78
2023/05/24 16:44:05;;;;;;;9.90;6.87;;;;;;;;;;6266397;28;20021;-79
2023/05/24 16:47:08;;;;;;;11.63;7.38;;;;;;;;;;6264562;28;20027;-79
2023/05/24 16:50:13;;;;;;;13.73;8.05;;;;;;;;;;6251167;28;20146;-78
2023/05/24 16:53:14;;;;;;;12.27;8.18;;;;;;;;;;6266957;28;20021;-77
2023/05/24 16:56:14;;;;;;;13.40;7.57;;;;;;;;;;6267717;28;20465;-78
2023/05/24 16:59:15;;;;;;;18.10;9.70;;;;;;;;;;6266933;28;20488;-78
2023/05/24 17:02:16;;;;;;;14.73;9.10;;;;;;;;;;6257138;28;20430;-86
2023/05/24 17:05:25;;;;;;;15.60;9.10;;;;;;;;;;6261955;28;20024;-86
2023/05/24 17:08:26;;;;;;;16.33;9.13;;;;;;;;;;6275094;28;20068;-82
2023/05/24 17:11:28;;;;;;;16.57;8.17;;;;;;;;;;6272399;28;20510;-78
2023/05/24 17:14:28;;;;;;;17.85;9.40;;;;;;;;;;6266089;28;20052;-78
2023/05/24 17:17:28;;;;;;;20.67;9.77;;;;;;;;;;6266467;28;20063;-77
2023/05/24 17:20:28;;;;;;;17.10;10.30;;;;;;;;;;6262862;28;20070;-78
2023/05/24 17:23:29;;;;;;;25.10;12.57;;;;;;;;;;6267192;28;20008;-79
2023/05/24 17:26:30;;;;;;;16.40;8.20;;;;;;;;;;6248791;28;20089;-79
2023/05/24 17:29:33;;;;;;;13.77;8.60;;;;;;;;;;6261768;28;20475;-79
2023/05/24 17:32:36;;;;;;;11.60;6.70;;;;;;;;;;6267371;28;20039;-80
2023/05/24 17:35:38;;;;;;;14.00;7.60;;;;;;;;;;6248702;28;20017;-80
2023/05/24 17:38:38;;;;;;;19.27;8.82;;;;;;;;;;6265478;28;20028;-78
2023/05/24 17:41:38;;;;;;;11.37;8.57;;;;;;;;;;6265417;28;20017;-78
2023/05/24 17:44:38;;;;;;;13.90;7.83;;;;;;;;;;6265062;28;20017;-77